sensor_id;sensor_type;location;lat;lon;timestamp;P1;durP1;ratioP1;P2;durP2;ratioP2
28766;SDS011;15921;52.034;20.650;2023-04-24T00:00:08;21.13;;;12.23;;
28766;SDS011;15921;52.034;20.650;2023-04-24T00:02:34;24.27;;;11.75;;
28766;SDS011;15921;52.034;20.650;2023-04-24T00:05:03;17.33;;;11.70;;
28766;SDS011;15921;52.034;20.650;2023-04-24T00:07:30;19.67;;;11.63;;
28766;SDS011;15921;52.034;20.650;2023-04-24T00:09:56;19.30;;;12.38;;
28766;SDS011;15921;52.034;20.650;2023-04-24T00:12:22;25.73;;;13.30;;
28766;SDS011;15921;52.034;20.650;2023-04-24T00:14:47;19.17;;;12.23;;
28766;SDS011;15921;52.034;20.650;2023-04-24T00:17:13;23.27;;;12.77;;
28766;SDS011;15921;52.034;20.650;2023-04-24T00:19:39;25.20;;;13.32;;
28766;SDS011;15921;52.034;20.650;2023-04-24T00:22:04;31.30;;;14.57;;
28766;SDS011;15921;52.034;20.650;2023-04-24T00:24:30;29.30;;;13.43;;
28766;SDS011;15921;52.034;20.650;2023-04-24T00:26:56;33.10;;;15.07;;
28766;SDS011;15921;52.034;20.650;2023-04-24T00:29:22;23.13;;;12.82;;
28766;SDS011;15921;52.034;20.650;2023-04-24T00:31:48;20.17;;;12.50;;
28766;SDS011;15921;52.034;20.650;2023-04-24T00:34:14;24.73;;;13.55;;
28766;SDS011;15921;52.034;20.650;2023-04-24T00:36:39;23.95;;;12.70;;
28766;SDS011;15921;52.034;20.650;2023-04-24T00:39:05;25.60;;;14.20;;
28766;SDS011;15921;52.034;20.650;2023-04-24T00:41:33;40.08;;;16.60;;
28766;SDS011;15921;52.034;20.650;2023-04-24T00:43:59;35.35;;;15.50;;
28766;SDS011;15921;52.034;20.650;2023-04-24T00:46:25;32.97;;;16.80;;
28766;SDS011;15921;52.034;20.650;2023-04-24T00:48:51;28.02;;;15.85;;
28766;SDS011;15921;52.034;20.650;2023-04-24T00:51:17;32.03;;;16.77;;
28766;SDS011;15921;52.034;20.650;2023-04-24T00:53:43;24.65;;;14.88;;
28766;SDS011;15921;52.034;20.650;2023-04-24T00:56:09;26.25;;;13.88;;
28766;SDS011;15921;52.034;20.650;2023-04-24T00:58:35;19.92;;;12.32;;
28766;SDS011;15921;52.034;20.650;2023-04-24T01:01:01;23.60;;;13.05;;
28766;SDS011;15921;52.034;20.650;2023-04-24T01:03:29;29.17;;;15.02;;
28766;SDS011;15921;52.034;20.650;2023-04-24T01:05:56;26.58;;;14.23;;
28766;SDS011;15921;52.034;20.650;2023-04-24T01:08:23;20.73;;;13.48;;
28766;SDS011;15921;52.034;20.650;2023-04-24T01:10:50;23.48;;;13.20;;
28766;SDS011;15921;52.034;20.650;2023-04-24T01:13:17;22.48;;;13.38;;
28766;SDS011;15921;52.034;20.650;2023-04-24T01:15:46;25.33;;;15.18;;
28766;SDS011;15921;52.034;20.650;2023-04-24T01:18:13;28.30;;;14.23;;
28766;SDS011;15921;52.034;20.650;2023-04-24T01:20:39;25.20;;;14.90;;
28766;SDS011;15921;52.034;20.650;2023-04-24T01:23:07;32.05;;;16.20;;
28766;SDS011;15921;52.034;20.650;2023-04-24T01:25:33;30.70;;;15.15;;
28766;SDS011;15921;52.034;20.650;2023-04-24T01:28:00;29.13;;;14.82;;
28766;SDS011;15921;52.034;20.650;2023-04-24T01:30:26;33.00;;;16.63;;
28766;SDS011;15921;52.034;20.650;2023-04-24T01:32:53;30.08;;;16.85;;
28766;SDS011;15921;52.034;20.650;2023-04-24T01:35:19;39.28;;;16.23;;
28766;SDS011;15921;52.034;20.650;2023-04-24T01:37:45;29.25;;;16.17;;
28766;SDS011;15921;52.034;20.650;2023-04-24T01:40:11;21.92;;;13.45;;
28766;SDS011;15921;52.034;20.650;2023-04-24T01:42:37;23.92;;;13.90;;
28766;SDS011;15921;52.034;20.650;2023-04-24T01:45:03;22.85;;;14.02;;
28766;SDS011;15921;52.034;20.650;2023-04-24T01:47:31;26.13;;;13.77;;
28766;SDS011;15921;52.034;20.650;2023-04-24T01:49:57;23.50;;;15.00;;
28766;SDS011;15921;52.034;20.650;2023-04-24T01:52:23;23.05;;;13.55;;
28766;SDS011;15921;52.034;20.650;2023-04-24T01:54:49;24.05;;;13.82;;
28766;SDS011;15921;52.034;20.650;2023-04-24T01:57:14;23.80;;;12.88;;
28766;SDS011;15921;52.034;20.650;2023-04-24T01:59:42;26.45;;;14.18;;
28766;SDS011;15921;52.034;20.650;2023-04-24T02:02:08;31.42;;;16.00;;
28766;SDS011;15921;52.034;20.650;2023-04-24T02:04:33;27.40;;;15.52;;
28766;SDS011;15921;52.034;20.650;2023-04-24T02:06:59;28.58;;;16.40;;
28766;SDS011;15921;52.034;20.650;2023-04-24T02:09:25;25.70;;;13.75;;
28766;SDS011;15921;52.034;20.650;2023-04-24T02:11:50;22.58;;;14.52;;
28766;SDS011;15921;52.034;20.650;2023-04-24T02:14:16;26.83;;;14.93;;
28766;SDS011;15921;52.034;20.650;2023-04-24T02:16:42;24.60;;;13.70;;
28766;SDS011;15921;52.034;20.650;2023-04-24T02:19:08;26.95;;;14.80;;
28766;SDS011;15921;52.034;20.650;2023-04-24T02:21:35;30.27;;;16.20;;
28766;SDS011;15921;52.034;20.650;2023-04-24T02:24:00;32.67;;;17.70;;
28766;SDS011;15921;52.034;20.650;2023-04-24T02:26:26;30.25;;;15.55;;
28766;SDS011;15921;52.034;20.650;2023-04-24T02:28:52;32.83;;;16.92;;
28766;SDS011;15921;52.034;20.650;2023-04-24T02:31:18;40.20;;;18.80;;
28766;SDS011;15921;52.034;20.650;2023-04-24T02:33:43;36.40;;;16.77;;
28766;SDS011;15921;52.034;20.650;2023-04-24T02:36:09;39.22;;;19.50;;
28766;SDS011;15921;52.034;20.650;2023-04-24T02:38:35;42.17;;;19.83;;
28766;SDS011;15921;52.034;20.650;2023-04-24T02:41:00;39.67;;;20.23;;
28766;SDS011;15921;52.034;20.650;2023-04-24T02:43:27;33.83;;;19.30;;
28766;SDS011;15921;52.034;20.650;2023-04-24T02:45:53;37.42;;;17.50;;
28766;SDS011;15921;52.034;20.650;2023-04-24T02:48:18;38.08;;;17.80;;
28766;SDS011;15921;52.034;20.650;2023-04-24T02:50:46;33.03;;;17.25;;
28766;SDS011;15921;52.034;20.650;2023-04-24T02:53:11;27.77;;;15.43;;
28766;SDS011;15921;52.034;20.650;2023-04-24T02:55:37;22.50;;;13.63;;
28766;SDS011;15921;52.034;20.650;2023-04-24T02:58:03;28.02;;;14.07;;
28766;SDS011;15921;52.034;20.650;2023-04-24T03:00:28;21.90;;;13.90;;
28766;SDS011;15921;52.034;20.650;2023-04-24T03:02:55;24.40;;;14.48;;
28766;SDS011;15921;52.034;20.650;2023-04-24T03:05:20;28.45;;;14.13;;
28766;SDS011;15921;52.034;20.650;2023-04-24T03:07:46;18.15;;;12.65;;
28766;SDS011;15921;52.034;20.650;2023-04-24T03:10:12;26.27;;;13.13;;
28766;SDS011;15921;52.034;20.650;2023-04-24T03:12:38;24.73;;;15.20;;
28766;SDS011;15921;52.034;20.650;2023-04-24T03:15:03;22.48;;;14.38;;
28766;SDS011;15921;52.034;20.650;2023-04-24T03:17:30;21.25;;;13.88;;
28766;SDS011;15921;52.034;20.650;2023-04-24T03:19:55;22.65;;;14.60;;
28766;SDS011;15921;52.034;20.650;2023-04-24T03:22:21;23.50;;;14.40;;
28766;SDS011;15921;52.034;20.650;2023-04-24T03:24:46;32.58;;;16.60;;
28766;SDS011;15921;52.034;20.650;2023-04-24T03:27:12;24.58;;;13.98;;
28766;SDS011;15921;52.034;20.650;2023-04-24T03:29:38;23.67;;;14.43;;
28766;SDS011;15921;52.034;20.650;2023-04-24T03:32:03;22.83;;;13.27;;
28766;SDS011;15921;52.034;20.650;2023-04-24T03:34:29;24.48;;;13.38;;
28766;SDS011;15921;52.034;20.650;2023-04-24T03:36:55;21.52;;;12.88;;
28766;SDS011;15921;52.034;20.650;2023-04-24T03:39:20;30.77;;;14.52;;
28766;SDS011;15921;52.034;20.650;2023-04-24T03:41:46;28.52;;;13.90;;
28766;SDS011;15921;52.034;20.650;2023-04-24T03:44:12;23.40;;;14.27;;
28766;SDS011;15921;52.034;20.650;2023-04-24T03:46:37;29.05;;;15.60;;
28766;SDS011;15921;52.034;20.650;2023-04-24T03:49:03;25.67;;;13.85;;
28766;SDS011;15921;52.034;20.650;2023-04-24T03:51:28;20.80;;;13.27;;
28766;SDS011;15921;52.034;20.650;2023-04-24T03:53:56;23.55;;;13.75;;
28766;SDS011;15921;52.034;20.650;2023-04-24T03:56:22;27.45;;;13.20;;
28766;SDS011;15921;52.034;20.650;2023-04-24T03:58:47;22.55;;;13.35;;
28766;SDS011;15921;52.034;20.650;2023-04-24T04:01:13;19.38;;;13.13;;
28766;SDS011;15921;52.034;20.650;2023-04-24T04:03:40;23.38;;;14.60;;
28766;SDS011;15921;52.034;20.650;2023-04-24T04:06:06;22.50;;;14.15;;
28766;SDS011;15921;52.034;20.650;2023-04-24T04:08:32;23.85;;;13.95;;
28766;SDS011;15921;52.034;20.650;2023-04-24T04:10:58;25.33;;;13.88;;
28766;SDS011;15921;52.034;20.650;2023-04-24T04:13:24;19.98;;;13.02;;
28766;SDS011;15921;52.034;20.650;2023-04-24T04:15:49;23.65;;;14.48;;
28766;SDS011;15921;52.034;20.650;2023-04-24T04:18:15;21.27;;;13.55;;
28766;SDS011;15921;52.034;20.650;2023-04-24T04:20:41;20.67;;;13.50;;
28766;SDS011;15921;52.034;20.650;2023-04-24T04:23:07;21.67;;;12.85;;
28766;SDS011;15921;52.034;20.650;2023-04-24T04:25:32;19.90;;;13.32;;
28766;SDS011;15921;52.034;20.650;2023-04-24T04:27:59;21.75;;;13.00;;
28766;SDS011;15921;52.034;20.650;2023-04-24T04:30:25;28.92;;;13.20;;
28766;SDS011;15921;52.034;20.650;2023-04-24T04:32:51;24.38;;;12.57;;
28766;SDS011;15921;52.034;20.650;2023-04-24T04:35:16;23.00;;;12.82;;
28766;SDS011;15921;52.034;20.650;2023-04-24T04:37:42;19.55;;;12.57;;
28766;SDS011;15921;52.034;20.650;2023-04-24T04:40:08;21.08;;;12.60;;
28766;SDS011;15921;52.034;20.650;2023-04-24T04:42:36;23.95;;;13.88;;
28766;SDS011;15921;52.034;20.650;2023-04-24T04:45:06;27.25;;;12.20;;
28766;SDS011;15921;52.034;20.650;2023-04-24T04:47:35;18.98;;;12.40;;
28766;SDS011;15921;52.034;20.650;2023-04-24T04:50:01;20.17;;;12.23;;
28766;SDS011;15921;52.034;20.650;2023-04-24T04:52:28;21.05;;;11.77;;
28766;SDS011;15921;52.034;20.650;2023-04-24T04:54:54;17.95;;;11.68;;
28766;SDS011;15921;52.034;20.650;2023-04-24T04:57:20;17.45;;;10.95;;
28766;SDS011;15921;52.034;20.650;2023-04-24T04:59:46;20.77;;;12.23;;
28766;SDS011;15921;52.034;20.650;2023-04-24T05:02:12;18.58;;;11.02;;
28766;SDS011;15921;52.034;20.650;2023-04-24T05:04:38;18.40;;;10.55;;
28766;SDS011;15921;52.034;20.650;2023-04-24T05:07:03;22.73;;;11.98;;
28766;SDS011;15921;52.034;20.650;2023-04-24T05:09:29;16.30;;;10.93;;
28766;SDS011;15921;52.034;20.650;2023-04-24T05:11:55;21.25;;;10.25;;
28766;SDS011;15921;52.034;20.650;2023-04-24T05:14:21;19.45;;;11.32;;
28766;SDS011;15921;52.034;20.650;2023-04-24T05:16:47;17.02;;;10.50;;
28766;SDS011;15921;52.034;20.650;2023-04-24T05:19:12;19.80;;;11.63;;
28766;SDS011;15921;52.034;20.650;2023-04-24T05:21:39;18.63;;;10.98;;
28766;SDS011;15921;52.034;20.650;2023-04-24T05:24:07;17.60;;;10.10;;
28766;SDS011;15921;52.034;20.650;2023-04-24T05:26:33;18.70;;;10.10;;
28766;SDS011;15921;52.034;20.650;2023-04-24T05:28:59;16.95;;;9.65;;
28766;SDS011;15921;52.034;20.650;2023-04-24T05:31:25;17.38;;;10.82;;
28766;SDS011;15921;52.034;20.650;2023-04-24T05:33:50;19.23;;;10.15;;
28766;SDS011;15921;52.034;20.650;2023-04-24T05:36:16;17.30;;;10.02;;
28766;SDS011;15921;52.034;20.650;2023-04-24T05:38:42;18.80;;;10.40;;
28766;SDS011;15921;52.034;20.650;2023-04-24T05:41:07;14.25;;;9.30;;
28766;SDS011;15921;52.034;20.650;2023-04-24T05:43:33;17.88;;;9.60;;
28766;SDS011;15921;52.034;20.650;2023-04-24T05:45:59;14.20;;;9.60;;
28766;SDS011;15921;52.034;20.650;2023-04-24T05:48:25;14.18;;;8.40;;
28766;SDS011;15921;52.034;20.650;2023-04-24T05:50:51;16.17;;;8.05;;
28766;SDS011;15921;52.034;20.650;2023-04-24T05:53:17;14.55;;;8.98;;
28766;SDS011;15921;52.034;20.650;2023-04-24T05:55:43;14.60;;;8.63;;
28766;SDS011;15921;52.034;20.650;2023-04-24T05:58:09;18.35;;;8.38;;
28766;SDS011;15921;52.034;20.650;2023-04-24T06:00:35;13.57;;;7.90;;
28766;SDS011;15921;52.034;20.650;2023-04-24T06:03:01;14.05;;;8.20;;
28766;SDS011;15921;52.034;20.650;2023-04-24T06:05:28;13.57;;;7.30;;
28766;SDS011;15921;52.034;20.650;2023-04-24T06:07:55;16.58;;;8.02;;
28766;SDS011;15921;52.034;20.650;2023-04-24T06:10:21;11.50;;;7.40;;
28766;SDS011;15921;52.034;20.650;2023-04-24T06:12:47;13.05;;;6.80;;
28766;SDS011;15921;52.034;20.650;2023-04-24T06:15:12;14.13;;;7.18;;
28766;SDS011;15921;52.034;20.650;2023-04-24T06:17:38;9.80;;;6.53;;
28766;SDS011;15921;52.034;20.650;2023-04-24T06:20:04;13.73;;;7.15;;
28766;SDS011;15921;52.034;20.650;2023-04-24T06:22:31;12.50;;;6.85;;
28766;SDS011;15921;52.034;20.650;2023-04-24T06:24:59;14.60;;;6.97;;
28766;SDS011;15921;52.034;20.650;2023-04-24T06:27:25;15.40;;;7.07;;
28766;SDS011;15921;52.034;20.650;2023-04-24T06:29:51;8.55;;;5.78;;
28766;SDS011;15921;52.034;20.650;2023-04-24T06:32:20;12.68;;;7.22;;
28766;SDS011;15921;52.034;20.650;2023-04-24T06:34:47;17.05;;;6.82;;
28766;SDS011;15921;52.034;20.650;2023-04-24T06:37:13;9.75;;;6.10;;
28766;SDS011;15921;52.034;20.650;2023-04-24T06:39:40;12.77;;;6.60;;
28766;SDS011;15921;52.034;20.650;2023-04-24T06:42:06;10.30;;;6.75;;
28766;SDS011;15921;52.034;20.650;2023-04-24T06:44:33;11.27;;;7.28;;
28766;SDS011;15921;52.034;20.650;2023-04-24T06:47:02;9.25;;;5.82;;
28766;SDS011;15921;52.034;20.650;2023-04-24T06:49:28;15.18;;;6.63;;
28766;SDS011;15921;52.034;20.650;2023-04-24T06:51:54;10.50;;;6.78;;
28766;SDS011;15921;52.034;20.650;2023-04-24T06:54:19;13.10;;;6.85;;
28766;SDS011;15921;52.034;20.650;2023-04-24T06:56:45;13.43;;;7.20;;
28766;SDS011;15921;52.034;20.650;2023-04-24T06:59:12;8.10;;;6.47;;
28766;SDS011;15921;52.034;20.650;2023-04-24T07:01:38;11.20;;;7.57;;
28766;SDS011;15921;52.034;20.650;2023-04-24T07:04:04;13.38;;;7.97;;
28766;SDS011;15921;52.034;20.650;2023-04-24T07:06:29;11.18;;;6.97;;
28766;SDS011;15921;52.034;20.650;2023-04-24T07:08:55;14.40;;;8.00;;
28766;SDS011;15921;52.034;20.650;2023-04-24T07:11:21;11.20;;;6.57;;
28766;SDS011;15921;52.034;20.650;2023-04-24T07:13:47;11.60;;;6.93;;
28766;SDS011;15921;52.034;20.650;2023-04-24T07:16:13;15.65;;;6.80;;
28766;SDS011;15921;52.034;20.650;2023-04-24T07:18:38;10.77;;;7.57;;
28766;SDS011;15921;52.034;20.650;2023-04-24T07:21:04;12.05;;;7.18;;
28766;SDS011;15921;52.034;20.650;2023-04-24T07:23:31;11.45;;;7.50;;
28766;SDS011;15921;52.034;20.650;2023-04-24T07:25:57;14.05;;;7.63;;
28766;SDS011;15921;52.034;20.650;2023-04-24T07:28:22;11.85;;;7.18;;
28766;SDS011;15921;52.034;20.650;2023-04-24T07:30:48;10.05;;;6.45;;
28766;SDS011;15921;52.034;20.650;2023-04-24T07:33:14;14.70;;;6.47;;
28766;SDS011;15921;52.034;20.650;2023-04-24T07:35:39;14.15;;;6.10;;
28766;SDS011;15921;52.034;20.650;2023-04-24T07:38:05;10.45;;;6.18;;
28766;SDS011;15921;52.034;20.650;2023-04-24T07:40:31;14.27;;;6.97;;
28766;SDS011;15921;52.034;20.650;2023-04-24T07:42:56;13.57;;;6.57;;
28766;SDS011;15921;52.034;20.650;2023-04-24T07:45:22;9.65;;;6.30;;
28766;SDS011;15921;52.034;20.650;2023-04-24T07:47:49;10.10;;;6.65;;
28766;SDS011;15921;52.034;20.650;2023-04-24T07:50:15;8.90;;;5.78;;
28766;SDS011;15921;52.034;20.650;2023-04-24T07:52:41;12.00;;;6.63;;
28766;SDS011;15921;52.034;20.650;2023-04-24T07:55:07;12.57;;;6.80;;
28766;SDS011;15921;52.034;20.650;2023-04-24T07:57:33;16.83;;;6.88;;
28766;SDS011;15921;52.034;20.650;2023-04-24T07:59:59;9.15;;;6.72;;
28766;SDS011;15921;52.034;20.650;2023-04-24T08:02:24;10.02;;;6.07;;
28766;SDS011;15921;52.034;20.650;2023-04-24T08:04:52;12.85;;;6.97;;
28766;SDS011;15921;52.034;20.650;2023-04-24T08:07:20;11.77;;;6.55;;
28766;SDS011;15921;52.034;20.650;2023-04-24T08:09:46;12.45;;;6.22;;
28766;SDS011;15921;52.034;20.650;2023-04-24T08:12:12;9.18;;;5.70;;
28766;SDS011;15921;52.034;20.650;2023-04-24T08:14:38;7.65;;;5.15;;
28766;SDS011;15921;52.034;20.650;2023-04-24T08:17:03;7.28;;;5.20;;
28766;SDS011;15921;52.034;20.650;2023-04-24T08:19:29;11.05;;;4.70;;
28766;SDS011;15921;52.034;20.650;2023-04-24T08:21:55;8.35;;;4.80;;
28766;SDS011;15921;52.034;20.650;2023-04-24T08:24:22;7.82;;;5.28;;
28766;SDS011;15921;52.034;20.650;2023-04-24T08:26:48;8.90;;;4.78;;
28766;SDS011;15921;52.034;20.650;2023-04-24T08:29:18;10.75;;;5.00;;
28766;SDS011;15921;52.034;20.650;2023-04-24T08:31:44;9.90;;;5.35;;
28766;SDS011;15921;52.034;20.650;2023-04-24T08:34:10;9.35;;;5.55;;
28766;SDS011;15921;52.034;20.650;2023-04-24T08:36:36;10.07;;;5.47;;
28766;SDS011;15921;52.034;20.650;2023-04-24T08:39:02;9.65;;;6.07;;
28766;SDS011;15921;52.034;20.650;2023-04-24T08:41:28;9.60;;;5.28;;
28766;SDS011;15921;52.034;20.650;2023-04-24T08:43:55;8.27;;;4.68;;
28766;SDS011;15921;52.034;20.650;2023-04-24T08:46:23;10.00;;;4.88;;
28766;SDS011;15921;52.034;20.650;2023-04-24T08:48:50;17.77;;;6.13;;
28766;SDS011;15921;52.034;20.650;2023-04-24T08:51:17;10.55;;;6.20;;
28766;SDS011;15921;52.034;20.650;2023-04-24T08:53:43;7.63;;;5.53;;
28766;SDS011;15921;52.034;20.650;2023-04-24T08:56:10;11.25;;;6.63;;
28766;SDS011;15921;52.034;20.650;2023-04-24T08:58:37;10.07;;;5.95;;
28766;SDS011;15921;52.034;20.650;2023-04-24T09:01:03;8.38;;;5.38;;
28766;SDS011;15921;52.034;20.650;2023-04-24T09:03:30;8.82;;;6.20;;
28766;SDS011;15921;52.034;20.650;2023-04-24T09:05:57;11.00;;;5.72;;
28766;SDS011;15921;52.034;20.650;2023-04-24T09:08:25;11.68;;;6.50;;
28766;SDS011;15921;52.034;20.650;2023-04-24T09:10:53;8.57;;;5.95;;
28766;SDS011;15921;52.034;20.650;2023-04-24T09:13:19;12.32;;;5.57;;
28766;SDS011;15921;52.034;20.650;2023-04-24T09:15:45;11.25;;;7.30;;
28766;SDS011;15921;52.034;20.650;2023-04-24T09:18:11;16.05;;;7.80;;
28766;SDS011;15921;52.034;20.650;2023-04-24T09:23:30;11.38;;;7.95;;
28766;SDS011;15921;52.034;20.650;2023-04-24T09:25:56;13.90;;;7.82;;
28766;SDS011;15921;52.034;20.650;2023-04-24T09:28:30;13.98;;;7.53;;
28766;SDS011;15921;52.034;20.650;2023-04-24T09:33:38;8.90;;;5.80;;
28766;SDS011;15921;52.034;20.650;2023-04-24T09:36:04;15.77;;;6.15;;
28766;SDS011;15921;52.034;20.650;2023-04-24T09:38:37;9.10;;;5.72;;
28766;SDS011;15921;52.034;20.650;2023-04-24T09:41:07;14.75;;;5.82;;
28766;SDS011;15921;52.034;20.650;2023-04-24T09:43:34;9.40;;;5.57;;
28766;SDS011;15921;52.034;20.650;2023-04-24T09:46:04;7.32;;;5.70;;
28766;SDS011;15921;52.034;20.650;2023-04-24T09:48:35;15.00;;;6.03;;
28766;SDS011;15921;52.034;20.650;2023-04-24T09:51:02;9.18;;;6.22;;
28766;SDS011;15921;52.034;20.650;2023-04-24T09:53:30;11.23;;;5.93;;
28766;SDS011;15921;52.034;20.650;2023-04-24T09:55:56;12.10;;;6.72;;
28766;SDS011;15921;52.034;20.650;2023-04-24T09:58:28;12.48;;;6.53;;
28766;SDS011;15921;52.034;20.650;2023-04-24T10:00:55;10.63;;;6.38;;
28766;SDS011;15921;52.034;20.650;2023-04-24T10:03:25;11.10;;;5.90;;
28766;SDS011;15921;52.034;20.650;2023-04-24T10:05:52;10.57;;;6.20;;
28766;SDS011;15921;52.034;20.650;2023-04-24T10:08:18;10.18;;;6.95;;
28766;SDS011;15921;52.034;20.650;2023-04-24T10:10:45;16.77;;;6.72;;
28766;SDS011;15921;52.034;20.650;2023-04-24T10:13:12;13.55;;;6.72;;
28766;SDS011;15921;52.034;20.650;2023-04-24T10:15:40;15.05;;;7.60;;
28766;SDS011;15921;52.034;20.650;2023-04-24T10:18:07;14.98;;;7.40;;
28766;SDS011;15921;52.034;20.650;2023-04-24T10:20:34;15.32;;;8.13;;
28766;SDS011;15921;52.034;20.650;2023-04-24T10:23:03;14.15;;;8.02;;
28766;SDS011;15921;52.034;20.650;2023-04-24T10:25:29;11.40;;;7.63;;
28766;SDS011;15921;52.034;20.650;2023-04-24T10:27:57;10.63;;;6.60;;
28766;SDS011;15921;52.034;20.650;2023-04-24T10:30:28;12.40;;;7.15;;
28766;SDS011;15921;52.034;20.650;2023-04-24T10:32:55;13.25;;;7.38;;
28766;SDS011;15921;52.034;20.650;2023-04-24T10:35:21;13.00;;;7.80;;
28766;SDS011;15921;52.034;20.650;2023-04-24T10:40:29;13.05;;;7.47;;
28766;SDS011;15921;52.034;20.650;2023-04-24T10:42:57;10.27;;;7.70;;
28766;SDS011;15921;52.034;20.650;2023-04-24T10:45:23;12.23;;;7.47;;
28766;SDS011;15921;52.034;20.650;2023-04-24T10:53:12;13.68;;;7.35;;
28766;SDS011;15921;52.034;20.650;2023-04-24T10:58:10;11.93;;;6.35;;
28766;SDS011;15921;52.034;20.650;2023-04-24T11:00:37;8.50;;;5.20;;
28766;SDS011;15921;52.034;20.650;2023-04-24T11:03:05;21.52;;;6.10;;
28766;SDS011;15921;52.034;20.650;2023-04-24T11:10:54;8.90;;;5.47;;
28766;SDS011;15921;52.034;20.650;2023-04-24T11:13:26;12.10;;;4.93;;
28766;SDS011;15921;52.034;20.650;2023-04-24T11:16:14;12.98;;;5.53;;
28766;SDS011;15921;52.034;20.650;2023-04-24T11:18:43;15.00;;;5.72;;
28766;SDS011;15921;52.034;20.650;2023-04-24T11:21:18;14.70;;;6.07;;
28766;SDS011;15921;52.034;20.650;2023-04-24T11:23:46;10.10;;;5.80;;
28766;SDS011;15921;52.034;20.650;2023-04-24T11:26:14;8.07;;;5.25;;
28766;SDS011;15921;52.034;20.650;2023-04-24T11:28:44;11.02;;;5.38;;
28766;SDS011;15921;52.034;20.650;2023-04-24T11:34:16;10.10;;;5.05;;
28766;SDS011;15921;52.034;20.650;2023-04-24T11:36:43;17.65;;;5.88;;
28766;SDS011;15921;52.034;20.650;2023-04-24T11:39:09;9.75;;;5.07;;
28766;SDS011;15921;52.034;20.650;2023-04-24T11:41:36;9.27;;;5.03;;
28766;SDS011;15921;52.034;20.650;2023-04-24T11:44:02;6.25;;;4.78;;
28766;SDS011;15921;52.034;20.650;2023-04-24T11:46:30;7.43;;;4.88;;
28766;SDS011;15921;52.034;20.650;2023-04-24T11:48:57;8.23;;;4.70;;
28766;SDS011;15921;52.034;20.650;2023-04-24T11:51:24;9.23;;;4.68;;
28766;SDS011;15921;52.034;20.650;2023-04-24T11:53:50;8.70;;;4.63;;
28766;SDS011;15921;52.034;20.650;2023-04-24T11:56:19;7.82;;;4.82;;
28766;SDS011;15921;52.034;20.650;2023-04-24T11:58:47;9.23;;;4.47;;
28766;SDS011;15921;52.034;20.650;2023-04-24T12:01:13;6.85;;;4.90;;
28766;SDS011;15921;52.034;20.650;2023-04-24T12:03:40;9.75;;;4.95;;
28766;SDS011;15921;52.034;20.650;2023-04-24T12:06:10;14.82;;;5.65;;
28766;SDS011;15921;52.034;20.650;2023-04-24T12:08:37;12.07;;;5.97;;
28766;SDS011;15921;52.034;20.650;2023-04-24T12:11:03;7.68;;;5.38;;
28766;SDS011;15921;52.034;20.650;2023-04-24T12:13:32;8.63;;;4.82;;
28766;SDS011;15921;52.034;20.650;2023-04-24T12:15:58;7.93;;;4.97;;
28766;SDS011;15921;52.034;20.650;2023-04-24T12:18:24;8.15;;;4.65;;
28766;SDS011;15921;52.034;20.650;2023-04-24T12:20:51;6.47;;;4.70;;
28766;SDS011;15921;52.034;20.650;2023-04-24T12:23:16;19.58;;;4.28;;
28766;SDS011;15921;52.034;20.650;2023-04-24T12:26:05;14.90;;;4.00;;
28766;SDS011;15921;52.034;20.650;2023-04-24T12:28:35;32.30;;;5.20;;
28766;SDS011;15921;52.034;20.650;2023-04-24T12:31:02;39.90;;;4.80;;
28766;SDS011;15921;52.034;20.650;2023-04-24T12:33:28;22.70;;;3.80;;
28766;SDS011;15921;52.034;20.650;2023-04-24T12:35:59;17.00;;;2.80;;
28766;SDS011;15921;52.034;20.650;2023-04-24T12:38:25;22.60;;;3.33;;
28766;SDS011;15921;52.034;20.650;2023-04-24T12:41:02;9.48;;;2.90;;
28766;SDS011;15921;52.034;20.650;2023-04-24T12:43:29;6.63;;;2.75;;
28766;SDS011;15921;52.034;20.650;2023-04-24T12:45:55;6.18;;;2.90;;
28766;SDS011;15921;52.034;20.650;2023-04-24T12:48:20;3.90;;;2.78;;
28766;SDS011;15921;52.034;20.650;2023-04-24T12:50:47;4.45;;;2.97;;
28766;SDS011;15921;52.034;20.650;2023-04-24T12:53:13;4.05;;;3.03;;
28766;SDS011;15921;52.034;20.650;2023-04-24T12:55:39;7.65;;;3.40;;
28766;SDS011;15921;52.034;20.650;2023-04-24T12:58:05;18.70;;;3.97;;
28766;SDS011;15921;52.034;20.650;2023-04-24T13:00:31;12.32;;;3.30;;
28766;SDS011;15921;52.034;20.650;2023-04-24T13:02:57;9.48;;;3.90;;
28766;SDS011;15921;52.034;20.650;2023-04-24T13:05:23;8.30;;;3.92;;
28766;SDS011;15921;52.034;20.650;2023-04-24T13:07:48;7.03;;;3.60;;
28766;SDS011;15921;52.034;20.650;2023-04-24T13:10:14;13.75;;;3.83;;
28766;SDS011;15921;52.034;20.650;2023-04-24T13:12:40;9.73;;;3.90;;
28766;SDS011;15921;52.034;20.650;2023-04-24T13:15:06;5.38;;;3.70;;
28766;SDS011;15921;52.034;20.650;2023-04-24T13:17:32;6.00;;;3.40;;
28766;SDS011;15921;52.034;20.650;2023-04-24T13:19:58;7.35;;;4.20;;
28766;SDS011;15921;52.034;20.650;2023-04-24T13:22:24;6.60;;;3.70;;
28766;SDS011;15921;52.034;20.650;2023-04-24T13:24:50;4.85;;;3.60;;
28766;SDS011;15921;52.034;20.650;2023-04-24T13:27:16;7.43;;;4.07;;
28766;SDS011;15921;52.034;20.650;2023-04-24T13:29:43;6.15;;;3.85;;
28766;SDS011;15921;52.034;20.650;2023-04-24T13:32:09;7.68;;;4.45;;
28766;SDS011;15921;52.034;20.650;2023-04-24T13:34:34;4.60;;;3.90;;
28766;SDS011;15921;52.034;20.650;2023-04-24T13:37:01;7.18;;;3.70;;
28766;SDS011;15921;52.034;20.650;2023-04-24T13:39:28;4.18;;;3.10;;
28766;SDS011;15921;52.034;20.650;2023-04-24T13:41:54;4.50;;;3.40;;
28766;SDS011;15921;52.034;20.650;2023-04-24T13:44:21;6.28;;;3.60;;
28766;SDS011;15921;52.034;20.650;2023-04-24T13:46:49;5.90;;;3.70;;
28766;SDS011;15921;52.034;20.650;2023-04-24T13:49:17;4.45;;;3.55;;
28766;SDS011;15921;52.034;20.650;2023-04-24T13:51:43;4.50;;;3.63;;
28766;SDS011;15921;52.034;20.650;2023-04-24T13:54:08;5.45;;;3.22;;
28766;SDS011;15921;52.034;20.650;2023-04-24T13:56:34;6.55;;;3.75;;
28766;SDS011;15921;52.034;20.650;2023-04-24T13:59:00;6.30;;;3.60;;
28766;SDS011;15921;52.034;20.650;2023-04-24T14:01:26;5.88;;;4.22;;
28766;SDS011;15921;52.034;20.650;2023-04-24T14:03:52;5.50;;;3.70;;
28766;SDS011;15921;52.034;20.650;2023-04-24T14:06:18;3.83;;;3.45;;
28766;SDS011;15921;52.034;20.650;2023-04-24T14:08:44;4.05;;;3.33;;
28766;SDS011;15921;52.034;20.650;2023-04-24T14:11:10;4.15;;;3.67;;
28766;SDS011;15921;52.034;20.650;2023-04-24T14:13:36;6.40;;;3.47;;
28766;SDS011;15921;52.034;20.650;2023-04-24T14:16:03;4.75;;;3.83;;
28766;SDS011;15921;52.034;20.650;2023-04-24T14:18:29;4.43;;;3.65;;
28766;SDS011;15921;52.034;20.650;2023-04-24T14:20:55;6.82;;;3.72;;
28766;SDS011;15921;52.034;20.650;2023-04-24T14:23:21;4.70;;;3.47;;
28766;SDS011;15921;52.034;20.650;2023-04-24T14:25:46;5.28;;;3.13;;
28766;SDS011;15921;52.034;20.650;2023-04-24T14:28:16;4.68;;;3.55;;
28766;SDS011;15921;52.034;20.650;2023-04-24T14:30:42;6.55;;;4.22;;
28766;SDS011;15921;52.034;20.650;2023-04-24T14:33:08;6.60;;;4.60;;
28766;SDS011;15921;52.034;20.650;2023-04-24T14:35:34;7.63;;;3.90;;
28766;SDS011;15921;52.034;20.650;2023-04-24T14:38:01;5.55;;;3.92;;
28766;SDS011;15921;52.034;20.650;2023-04-24T14:40:27;5.50;;;3.55;;